sensor_id;sensor_type;location;lat;lon;timestamp;temperature;humidity
8103;DHT22;4094;49.948;11.574;2024-02-16T00:02:39;12.00;80.00
8103;DHT22;4094;49.948;11.574;2024-02-16T00:05:28;12.00;80.20
8103;DHT22;4094;49.948;11.574;2024-02-16T00:08:19;12.00;80.30
8103;DHT22;4094;49.948;11.574;2024-02-16T00:11:08;11.90;80.40
8103;DHT22;4094;49.948;11.574;2024-02-16T00:13:58;12.00;80.40
8103;DHT22;4094;49.948;11.574;2024-02-16T00:16:48;11.90;80.30
8103;DHT22;4094;49.948;11.574;2024-02-16T00:19:37;11.90;80.50
8103;DHT22;4094;49.948;11.574;2024-02-16T00:22:26;11.90;80.50
8103;DHT22;4094;49.948;11.574;2024-02-16T00:25:17;11.90;80.50
8103;DHT22;4094;49.948;11.574;2024-02-16T00:28:08;11.90;80.60
8103;DHT22;4094;49.948;11.574;2024-02-16T00:30:58;11.90;80.60
8103;DHT22;4094;49.948;11.574;2024-02-16T00:33:47;11.90;80.70
8103;DHT22;4094;49.948;11.574;2024-02-16T00:36:36;11.80;80.70
8103;DHT22;4094;49.948;11.574;2024-02-16T00:39:26;11.80;80.80
8103;DHT22;4094;49.948;11.574;2024-02-16T00:42:17;11.80;80.90
8103;DHT22;4094;49.948;11.574;2024-02-16T00:45:07;11.80;81.00
8103;DHT22;4094;49.948;11.574;2024-02-16T00:47:56;11.80;81.00
8103;DHT22;4094;49.948;11.574;2024-02-16T00:50:47;11.80;81.00
8103;DHT22;4094;49.948;11.574;2024-02-16T00:53:36;11.80;81.00
8103;DHT22;4094;49.948;11.574;2024-02-16T00:56:25;11.80;81.00
8103;DHT22;4094;49.948;11.574;2024-02-16T00:59:15;11.80;81.00
8103;DHT22;4094;49.948;11.574;2024-02-16T01:02:05;11.80;81.00
8103;DHT22;4094;49.948;11.574;2024-02-16T01:04:54;11.80;81.00
8103;DHT22;4094;49.948;11.574;2024-02-16T01:07:49;11.80;81.00
8103;DHT22;4094;49.948;11.574;2024-02-16T01:10:39;11.80;81.00
8103;DHT22;4094;49.948;11.574;2024-02-16T01:13:28;11.80;81.90
8103;DHT22;4094;49.948;11.574;2024-02-16T01:16:18;11.80;81.00
8103;DHT22;4094;49.948;11.574;2024-02-16T01:19:07;11.80;81.00
8103;DHT22;4094;49.948;11.574;2024-02-16T01:21:58;11.80;81.10
8103;DHT22;4094;49.948;11.574;2024-02-16T01:24:48;11.80;81.10
8103;DHT22;4094;49.948;11.574;2024-02-16T01:27:37;11.80;81.10
8103;DHT22;4094;49.948;11.574;2024-02-16T01:30:29;11.80;81.10
8103;DHT22;4094;49.948;11.574;2024-02-16T01:33:19;11.80;81.10
8103;DHT22;4094;49.948;11.574;2024-02-16T01:36:09;11.80;81.20
8103;DHT22;4094;49.948;11.574;2024-02-16T01:38:58;11.90;81.20
8103;DHT22;4094;49.948;11.574;2024-02-16T01:41:47;11.90;81.10
8103;DHT22;4094;49.948;11.574;2024-02-16T01:44:36;11.90;81.00
8103;DHT22;4094;49.948;11.574;2024-02-16T01:47:26;11.90;80.90
8103;DHT22;4094;49.948;11.574;2024-02-16T01:50:18;11.90;80.90
8103;DHT22;4094;49.948;11.574;2024-02-16T01:53:07;11.90;80.90
8103;DHT22;4094;49.948;11.574;2024-02-16T01:55:57;11.90;80.90
8103;DHT22;4094;49.948;11.574;2024-02-16T01:58:46;12.00;81.00
8103;DHT22;4094;49.948;11.574;2024-02-16T02:01:39;12.00;80.90
8103;DHT22;4094;49.948;11.574;2024-02-16T02:04:28;12.00;80.90
8103;DHT22;4094;49.948;11.574;2024-02-16T02:07:24;12.00;80.70
8103;DHT22;4094;49.948;11.574;2024-02-16T02:10:14;12.00;80.70
8103;DHT22;4094;49.948;11.574;2024-02-16T02:13:03;12.00;80.80
8103;DHT22;4094;49.948;11.574;2024-02-16T02:15:53;12.00;80.90
8103;DHT22;4094;49.948;11.574;2024-02-16T02:18:44;11.90;80.90
8103;DHT22;4094;49.948;11.574;2024-02-16T02:21:33;11.90;80.90
8103;DHT22;4094;49.948;11.574;2024-02-16T02:24:24;11.90;81.00
8103;DHT22;4094;49.948;11.574;2024-02-16T02:27:13;11.90;80.90
8103;DHT22;4094;49.948;11.574;2024-02-16T02:30:03;12.00;81.00
8103;DHT22;4094;49.948;11.574;2024-02-16T02:32:53;12.00;80.90
8103;DHT22;4094;49.948;11.574;2024-02-16T02:35:42;12.00;80.70
8103;DHT22;4094;49.948;11.574;2024-02-16T02:38:31;12.00;80.70
8103;DHT22;4094;49.948;11.574;2024-02-16T02:41:22;12.00;80.70
8103;DHT22;4094;49.948;11.574;2024-02-16T02:44:11;12.00;80.60
8103;DHT22;4094;49.948;11.574;2024-02-16T02:47:00;12.00;80.60
8103;DHT22;4094;49.948;11.574;2024-02-16T02:49:50;12.00;80.60
8103;DHT22;4094;49.948;11.574;2024-02-16T02:52:39;12.10;80.70
8103;DHT22;4094;49.948;11.574;2024-02-16T02:55:29;12.10;80.60
8103;DHT22;4094;49.948;11.574;2024-02-16T02:58:19;12.10;80.60
8103;DHT22;4094;49.948;11.574;2024-02-16T03:01:08;12.10;80.70
8103;DHT22;4094;49.948;11.574;2024-02-16T03:03:57;12.10;80.60
8103;DHT22;4094;49.948;11.574;2024-02-16T03:06:48;12.10;80.50
8103;DHT22;4094;49.948;11.574;2024-02-16T03:09:37;12.10;80.50
8103;DHT22;4094;49.948;11.574;2024-02-16T03:12:26;12.10;80.50
8103;DHT22;4094;49.948;11.574;2024-02-16T03:15:17;12.10;80.50
8103;DHT22;4094;49.948;11.574;2024-02-16T03:18:06;12.10;80.50
8103;DHT22;4094;49.948;11.574;2024-02-16T03:20:57;12.10;80.50
8103;DHT22;4094;49.948;11.574;2024-02-16T03:23:46;12.10;80.50
8103;DHT22;4094;49.948;11.574;2024-02-16T03:26:35;12.10;80.50
8103;DHT22;4094;49.948;11.574;2024-02-16T03:29:24;12.10;80.40
8103;DHT22;4094;49.948;11.574;2024-02-16T03:32:15;12.10;80.40
8103;DHT22;4094;49.948;11.574;2024-02-16T03:35:05;12.10;80.50
8103;DHT22;4094;49.948;11.574;2024-02-16T03:37:55;12.10;80.50
8103;DHT22;4094;49.948;11.574;2024-02-16T03:40:44;12.10;80.50
8103;DHT22;4094;49.948;11.574;2024-02-16T03:43:34;12.10;80.50
8103;DHT22;4094;49.948;11.574;2024-02-16T03:46:23;12.10;80.60
8103;DHT22;4094;49.948;11.574;2024-02-16T03:49:14;12.10;80.70
8103;DHT22;4094;49.948;11.574;2024-02-16T03:52:04;12.10;80.50
8103;DHT22;4094;49.948;11.574;2024-02-16T03:54:55;12.10;80.50
8103;DHT22;4094;49.948;11.574;2024-02-16T03:57:44;12.10;80.40
8103;DHT22;4094;49.948;11.574;2024-02-16T04:00:33;12.10;81.00
8103;DHT22;4094;49.948;11.574;2024-02-16T04:03:23;12.10;80.50
8103;DHT22;4094;49.948;11.574;2024-02-16T04:06:13;12.10;80.40
8103;DHT22;4094;49.948;11.574;2024-02-16T04:09:02;12.10;80.40
8103;DHT22;4094;49.948;11.574;2024-02-16T04:11:53;12.10;80.40
8103;DHT22;4094;49.948;11.574;2024-02-16T04:14:43;12.20;80.30
8103;DHT22;4094;49.948;11.574;2024-02-16T04:17:33;12.10;80.20
8103;DHT22;4094;49.948;11.574;2024-02-16T04:20:22;12.20;80.20
8103;DHT22;4094;49.948;11.574;2024-02-16T04:23:13;12.20;80.20
8103;DHT22;4094;49.948;11.574;2024-02-16T04:26:02;12.20;80.10
8103;DHT22;4094;49.948;11.574;2024-02-16T04:28:54;12.20;80.20
8103;DHT22;4094;49.948;11.574;2024-02-16T04:31:43;12.20;80.10
8103;DHT22;4094;49.948;11.574;2024-02-16T04:34:33;12.20;80.10
8103;DHT22;4094;49.948;11.574;2024-02-16T04:37:23;12.20;80.10
8103;DHT22;4094;49.948;11.574;2024-02-16T04:40:14;12.20;80.00
8103;DHT22;4094;49.948;11.574;2024-02-16T04:43:04;12.20;80.00
8103;DHT22;4094;49.948;11.574;2024-02-16T04:45:53;12.20;79.80
8103;DHT22;4094;49.948;11.574;2024-02-16T04:48:43;12.20;79.80
8103;DHT22;4094;49.948;11.574;2024-02-16T04:51:32;12.20;79.90
8103;DHT22;4094;49.948;11.574;2024-02-16T04:54:22;12.20;79.80
8103;DHT22;4094;49.948;11.574;2024-02-16T04:57:12;12.10;79.80
8103;DHT22;4094;49.948;11.574;2024-02-16T05:00:03;12.20;79.80
8103;DHT22;4094;49.948;11.574;2024-02-16T05:02:52;12.10;79.70
8103;DHT22;4094;49.948;11.574;2024-02-16T05:05:41;12.10;79.60
8103;DHT22;4094;49.948;11.574;2024-02-16T05:08:31;12.10;79.70
8103;DHT22;4094;49.948;11.574;2024-02-16T05:11:20;12.10;79.60
8103;DHT22;4094;49.948;11.574;2024-02-16T05:14:11;12.10;79.70
8103;DHT22;4094;49.948;11.574;2024-02-16T05:17:00;12.10;79.80
8103;DHT22;4094;49.948;11.574;2024-02-16T05:19:50;12.10;79.80
8103;DHT22;4094;49.948;11.574;2024-02-16T05:22:39;12.10;79.70
8103;DHT22;4094;49.948;11.574;2024-02-16T05:25:28;12.10;79.80
8103;DHT22;4094;49.948;11.574;2024-02-16T05:28:17;12.10;79.80
8103;DHT22;4094;49.948;11.574;2024-02-16T05:31:15;12.10;79.80
8103;DHT22;4094;49.948;11.574;2024-02-16T05:34:06;12.10;79.70
8103;DHT22;4094;49.948;11.574;2024-02-16T05:36:55;12.10;79.60
8103;DHT22;4094;49.948;11.574;2024-02-16T05:39:44;12.10;79.70
8103;DHT22;4094;49.948;11.574;2024-02-16T05:42:46;12.10;79.70
8103;DHT22;4094;49.948;11.574;2024-02-16T05:45:36;12.20;79.70
8103;DHT22;4094;49.948;11.574;2024-02-16T05:48:26;12.20;79.50
8103;DHT22;4094;49.948;11.574;2024-02-16T05:51:18;12.20;79.40
8103;DHT22;4094;49.948;11.574;2024-02-16T05:54:07;12.20;79.20
8103;DHT22;4094;49.948;11.574;2024-02-16T05:56:59;12.20;79.20
8103;DHT22;4094;49.948;11.574;2024-02-16T05:59:48;12.20;79.10
8103;DHT22;4094;49.948;11.574;2024-02-16T06:02:40;12.20;78.90
8103;DHT22;4094;49.948;11.574;2024-02-16T06:05:31;12.20;78.90
8103;DHT22;4094;49.948;11.574;2024-02-16T06:08:21;12.20;78.80
8103;DHT22;4094;49.948;11.574;2024-02-16T06:11:13;12.10;78.80
8103;DHT22;4094;49.948;11.574;2024-02-16T06:14:03;12.10;78.80
8103;DHT22;4094;49.948;11.574;2024-02-16T06:16:52;12.10;78.80
8103;DHT22;4094;49.948;11.574;2024-02-16T06:19:41;12.10;78.80
8103;DHT22;4094;49.948;11.574;2024-02-16T06:22:32;12.10;78.80
8103;DHT22;4094;49.948;11.574;2024-02-16T06:25:21;12.10;78.70
8103;DHT22;4094;49.948;11.574;2024-02-16T06:28:10;12.10;78.60
8103;DHT22;4094;49.948;11.574;2024-02-16T06:31:00;12.10;78.60
8103;DHT22;4094;49.948;11.574;2024-02-16T06:33:49;12.00;78.70
8103;DHT22;4094;49.948;11.574;2024-02-16T06:36:38;12.00;78.80
8103;DHT22;4094;49.948;11.574;2024-02-16T06:39:31;12.00;78.70
8103;DHT22;4094;49.948;11.574;2024-02-16T06:42:21;12.00;78.60
8103;DHT22;4094;49.948;11.574;2024-02-16T06:45:11;12.00;78.70
8103;DHT22;4094;49.948;11.574;2024-02-16T06:48:00;12.00;78.70
8103;DHT22;4094;49.948;11.574;2024-02-16T06:50:49;12.00;78.70
8103;DHT22;4094;49.948;11.574;2024-02-16T06:53:39;12.00;78.80
8103;DHT22;4094;49.948;11.574;2024-02-16T06:56:31;12.00;78.70
8103;DHT22;4094;49.948;11.574;2024-02-16T06:59:21;12.00;78.80
8103;DHT22;4094;49.948;11.574;2024-02-16T07:02:10;12.10;78.90
8103;DHT22;4094;49.948;11.574;2024-02-16T07:05:01;12.10;78.90
8103;DHT22;4094;49.948;11.574;2024-02-16T07:07:50;12.10;78.70
8103;DHT22;4094;49.948;11.574;2024-02-16T07:10:39;12.10;78.60
8103;DHT22;4094;49.948;11.574;2024-02-16T07:13:30;12.10;78.50
8103;DHT22;4094;49.948;11.574;2024-02-16T07:16:19;12.10;78.60
8103;DHT22;4094;49.948;11.574;2024-02-16T07:19:08;12.10;78.60
8103;DHT22;4094;49.948;11.574;2024-02-16T07:21:58;12.10;78.60
8103;DHT22;4094;49.948;11.574;2024-02-16T07:24:47;12.10;78.60
8103;DHT22;4094;49.948;11.574;2024-02-16T07:27:36;12.10;78.40
8103;DHT22;4094;49.948;11.574;2024-02-16T07:30:26;12.10;78.50
8103;DHT22;4094;49.948;11.574;2024-02-16T07:33:30;12.10;78.50
8103;DHT22;4094;49.948;11.574;2024-02-16T07:36:19;12.20;78.40
8103;DHT22;4094;49.948;11.574;2024-02-16T07:39:08;12.20;78.20
8103;DHT22;4094;49.948;11.574;2024-02-16T07:42:00;12.20;78.20
8103;DHT22;4094;49.948;11.574;2024-02-16T07:44:49;12.20;78.00
8103;DHT22;4094;49.948;11.574;2024-02-16T07:47:42;12.30;78.20
8103;DHT22;4094;49.948;11.574;2024-02-16T07:50:31;12.30;78.20
8103;DHT22;4094;49.948;11.574;2024-02-16T07:53:20;12.30;78.10
8103;DHT22;4094;49.948;11.574;2024-02-16T07:56:10;12.30;78.10
8103;DHT22;4094;49.948;11.574;2024-02-16T07:58:59;12.30;78.00
8103;DHT22;4094;49.948;11.574;2024-02-16T08:01:48;12.30;78.00
8103;DHT22;4094;49.948;11.574;2024-02-16T08:04:38;12.30;77.90
8103;DHT22;4094;49.948;11.574;2024-02-16T08:07:29;12.30;77.90
8103;DHT22;4094;49.948;11.574;2024-02-16T08:10:19;12.30;77.90
8103;DHT22;4094;49.948;11.574;2024-02-16T08:13:09;12.40;77.90
8103;DHT22;4094;49.948;11.574;2024-02-16T08:15:58;12.30;78.10
8103;DHT22;4094;49.948;11.574;2024-02-16T08:18:47;12.40;77.90
8103;DHT22;4094;49.948;11.574;2024-02-16T08:21:38;12.40;77.80
8103;DHT22;4094;49.948;11.574;2024-02-16T08:24:27;12.40;77.70
8103;DHT22;4094;49.948;11.574;2024-02-16T08:27:16;12.40;77.60
8103;DHT22;4094;49.948;11.574;2024-02-16T08:30:07;12.50;77.70
8103;DHT22;4094;49.948;11.574;2024-02-16T08:32:57;12.50;77.60
8103;DHT22;4094;49.948;11.574;2024-02-16T08:35:49;12.50;77.60
8103;DHT22;4094;49.948;11.574;2024-02-16T08:38:39;12.50;77.60
8103;DHT22;4094;49.948;11.574;2024-02-16T08:41:29;12.60;77.20
8103;DHT22;4094;49.948;11.574;2024-02-16T08:44:18;12.60;77.00
8103;DHT22;4094;49.948;11.574;2024-02-16T08:47:07;12.60;77.00
8103;DHT22;4094;49.948;11.574;2024-02-16T08:49:56;12.60;77.10
8103;DHT22;4094;49.948;11.574;2024-02-16T08:52:46;12.60;77.10
8103;DHT22;4094;49.948;11.574;2024-02-16T08:55:36;12.60;76.70
8103;DHT22;4094;49.948;11.574;2024-02-16T08:58:25;12.70;76.70
8103;DHT22;4094;49.948;11.574;2024-02-16T09:01:14;12.70;76.50
8103;DHT22;4094;49.948;11.574;2024-02-16T09:04:04;12.70;76.70
8103;DHT22;4094;49.948;11.574;2024-02-16T09:06:54;12.70;76.80
8103;DHT22;4094;49.948;11.574;2024-02-16T09:09:43;12.80;76.60
8103;DHT22;4094;49.948;11.574;2024-02-16T09:12:34;12.80;76.50
8103;DHT22;4094;49.948;11.574;2024-02-16T09:15:23;12.80;76.40
8103;DHT22;4094;49.948;11.574;2024-02-16T09:18:12;12.80;76.50
8103;DHT22;4094;49.948;11.574;2024-02-16T09:21:02;12.90;76.80
8103;DHT22;4094;49.948;11.574;2024-02-16T09:23:51;12.90;76.60
8103;DHT22;4094;49.948;11.574;2024-02-16T09:26:40;13.00;76.60
8103;DHT22;4094;49.948;11.574;2024-02-16T09:29:31;13.10;76.60
8103;DHT22;4094;49.948;11.574;2024-02-16T09:32:20;13.20;76.50
8103;DHT22;4094;49.948;11.574;2024-02-16T09:35:10;13.20;76.60
8103;DHT22;4094;49.948;11.574;2024-02-16T09:38:01;13.30;75.70
8103;DHT22;4094;49.948;11.574;2024-02-16T09:40:50;13.40;75.80
8103;DHT22;4094;49.948;11.574;2024-02-16T09:43:40;13.40;75.30
8103;DHT22;4094;49.948;11.574;2024-02-16T09:46:31;13.50;75.30
8103;DHT22;4094;49.948;11.574;2024-02-16T09:49:21;13.60;75.20
8103;DHT22;4094;49.948;11.574;2024-02-16T09:52:22;13.60;74.90
8103;DHT22;4094;49.948;11.574;2024-02-16T09:55:13;13.70;74.80
8103;DHT22;4094;49.948;11.574;2024-02-16T09:58:03;13.70;74.30
8103;DHT22;4094;49.948;11.574;2024-02-16T10:00:54;13.80;74.30
8103;DHT22;4094;49.948;11.574;2024-02-16T10:03:46;13.80;74.20
8103;DHT22;4094;49.948;11.574;2024-02-16T10:06:45;13.90;73.90
8103;DHT22;4094;49.948;11.574;2024-02-16T10:09:36;13.90;73.90
8103;DHT22;4094;49.948;11.574;2024-02-16T10:12:26;14.00;73.60
8103;DHT22;4094;49.948;11.574;2024-02-16T10:15:21;14.00;73.30
8103;DHT22;4094;49.948;11.574;2024-02-16T10:18:12;14.00;73.00
8103;DHT22;4094;49.948;11.574;2024-02-16T10:21:04;14.00;73.10
8103;DHT22;4094;49.948;11.574;2024-02-16T10:23:59;14.00;73.10
8103;DHT22;4094;49.948;11.574;2024-02-16T10:26:48;14.00;73.40
8103;DHT22;4094;49.948;11.574;2024-02-16T10:29:39;14.00;73.50
8103;DHT22;4094;49.948;11.574;2024-02-16T10:32:28;14.10;73.50
8103;DHT22;4094;49.948;11.574;2024-02-16T10:35:18;14.20;73.70
8103;DHT22;4094;49.948;11.574;2024-02-16T10:38:10;14.30;73.30
8103;DHT22;4094;49.948;11.574;2024-02-16T10:41:01;14.40;72.60
8103;DHT22;4094;49.948;11.574;2024-02-16T10:43:51;14.40;72.00
8103;DHT22;4094;49.948;11.574;2024-02-16T10:46:41;14.40;72.00
8103;DHT22;4094;49.948;11.574;2024-02-16T10:49:31;14.40;72.00
8103;DHT22;4094;49.948;11.574;2024-02-16T10:52:21;14.30;72.10
8103;DHT22;4094;49.948;11.574;2024-02-16T10:55:13;14.30;72.50
8103;DHT22;4094;49.948;11.574;2024-02-16T10:58:07;14.30;72.70
8103;DHT22;4094;49.948;11.574;2024-02-16T11:00:57;14.30;72.80
8103;DHT22;4094;49.948;11.574;2024-02-16T11:03:47;14.30;72.80
8103;DHT22;4094;49.948;11.574;2024-02-16T11:06:47;14.30;72.80
8103;DHT22;4094;49.948;11.574;2024-02-16T11:09:39;14.30;72.50
8103;DHT22;4094;49.948;11.574;2024-02-16T11:12:34;14.30;72.60
8103;DHT22;4094;49.948;11.574;2024-02-16T11:15:27;14.30;72.50
8103;DHT22;4094;49.948;11.574;2024-02-16T11:18:17;14.20;72.60
8103;DHT22;4094;49.948;11.574;2024-02-16T11:21:06;14.20;73.00
8103;DHT22;4094;49.948;11.574;2024-02-16T11:24:06;14.20;73.10
8103;DHT22;4094;49.948;11.574;2024-02-16T11:26:56;14.20;73.20
8103;DHT22;4094;49.948;11.574;2024-02-16T11:29:47;14.20;73.20
8103;DHT22;4094;49.948;11.574;2024-02-16T11:32:37;14.20;73.50
8103;DHT22;4094;49.948;11.574;2024-02-16T11:35:28;14.20;73.50
8103;DHT22;4094;49.948;11.574;2024-02-16T11:38:18;14.20;73.40
8103;DHT22;4094;49.948;11.574;2024-02-16T11:41:07;14.20;73.60
8103;DHT22;4094;49.948;11.574;2024-02-16T11:43:59;14.20;73.70
8103;DHT22;4094;49.948;11.574;2024-02-16T11:46:53;14.30;73.90
8103;DHT22;4094;49.948;11.574;2024-02-16T11:49:42;14.30;73.90
8103;DHT22;4094;49.948;11.574;2024-02-16T11:52:31;14.30;73.90
8103;DHT22;4094;49.948;11.574;2024-02-16T11:55:20;14.30;74.10
8103;DHT22;4094;49.948;11.574;2024-02-16T11:58:09;14.40;74.20
8103;DHT22;4094;49.948;11.574;2024-02-16T12:00:59;14.40;74.20
8103;DHT22;4094;49.948;11.574;2024-02-16T12:03:52;14.50;74.10
8103;DHT22;4094;49.948;11.574;2024-02-16T12:06:42;14.50;74.20
8103;DHT22;4094;49.948;11.574;2024-02-16T12:09:33;14.50;74.30
8103;DHT22;4094;49.948;11.574;2024-02-16T12:12:24;14.60;74.40
8103;DHT22;4094;49.948;11.574;2024-02-16T12:15:14;14.70;74.10
8103;DHT22;4094;49.948;11.574;2024-02-16T12:18:06;14.70;74.10
8103;DHT22;4094;49.948;11.574;2024-02-16T12:21:00;14.80;74.20
8103;DHT22;4094;49.948;11.574;2024-02-16T12:23:50;14.90;74.00
8103;DHT22;4094;49.948;11.574;2024-02-16T12:26:38;14.90;74.10
8103;DHT22;4094;49.948;11.574;2024-02-16T12:29:29;15.00;74.10
8103;DHT22;4094;49.948;11.574;2024-02-16T12:32:18;15.20;74.50
8103;DHT22;4094;49.948;11.574;2024-02-16T12:35:08;15.30;74.60
8103;DHT22;4094;49.948;11.574;2024-02-16T12:37:59;15.50;74.10
8103;DHT22;4094;49.948;11.574;2024-02-16T12:40:48;15.70;73.70
8103;DHT22;4094;49.948;11.574;2024-02-16T12:43:37;15.90;73.50
8103;DHT22;4094;49.948;11.574;2024-02-16T12:46:26;16.00;73.20
8103;DHT22;4094;49.948;11.574;2024-02-16T12:49:16;16.10;72.70
8103;DHT22;4094;49.948;11.574;2024-02-16T12:52:07;16.20;72.00
8103;DHT22;4094;49.948;11.574;2024-02-16T12:54:57;16.30;71.80
8103;DHT22;4094;49.948;11.574;2024-02-16T12:57:47;16.30;71.50
8103;DHT22;4094;49.948;11.574;2024-02-16T13:00:37;16.30;71.50
8103;DHT22;4094;49.948;11.574;2024-02-16T13:03:26;16.30;71.60
8103;DHT22;4094;49.948;11.574;2024-02-16T13:06:16;16.30;71.70
8103;DHT22;4094;49.948;11.574;2024-02-16T13:09:05;16.40;71.80
8103;DHT22;4094;49.948;11.574;2024-02-16T13:11:57;16.40;71.60
8103;DHT22;4094;49.948;11.574;2024-02-16T13:14:47;16.50;71.40
8103;DHT22;4094;49.948;11.574;2024-02-16T13:17:36;16.60;71.30
8103;DHT22;4094;49.948;11.574;2024-02-16T13:20:25;16.60;71.40
8103;DHT22;4094;49.948;11.574;2024-02-16T13:23:14;16.70;71.50
8103;DHT22;4094;49.948;11.574;2024-02-16T13:26:03;16.80;71.40
8103;DHT22;4094;49.948;11.574;2024-02-16T13:28:55;16.90;71.30
8103;DHT22;4094;49.948;11.574;2024-02-16T13:31:44;17.10;71.10
8103;DHT22;4094;49.948;11.574;2024-02-16T13:34:33;17.20;70.60
8103;DHT22;4094;49.948;11.574;2024-02-16T13:37:23;17.20;70.30
8103;DHT22;4094;49.948;11.574;2024-02-16T13:40:12;17.30;69.50
8103;DHT22;4094;49.948;11.574;2024-02-16T13:43:02;17.30;68.80
8103;DHT22;4094;49.948;11.574;2024-02-16T13:45:54;17.30;68.50
8103;DHT22;4094;49.948;11.574;2024-02-16T13:48:45;17.20;68.70
8103;DHT22;4094;49.948;11.574;2024-02-16T13:51:35;17.20;68.60
8103;DHT22;4094;49.948;11.574;2024-02-16T13:54:24;17.20;68.30
8103;DHT22;4094;49.948;11.574;2024-02-16T13:57:13;17.10;68.20
8103;DHT22;4094;49.948;11.574;2024-02-16T14:00:02;17.00;68.40
8103;DHT22;4094;49.948;11.574;2024-02-16T14:03:00;17.00;68.50
8103;DHT22;4094;49.948;11.574;2024-02-16T14:05:50;17.00;68.60
8103;DHT22;4094;49.948;11.574;2024-02-16T14:08:39;16.90;68.50
8103;DHT22;4094;49.948;11.574;2024-02-16T14:11:29;16.90;68.60
8103;DHT22;4094;49.948;11.574;2024-02-16T14:14:18;16.80;68.60
8103;DHT22;4094;49.948;11.574;2024-02-16T14:17:23;16.80;68.80
8103;DHT22;4094;49.948;11.574;2024-02-16T14:20:14;16.80;68.90
8103;DHT22;4094;49.948;11.574;2024-02-16T14:23:05;16.70;69.60
8103;DHT22;4094;49.948;11.574;2024-02-16T14:25:57;16.70;68.90
8103;DHT22;4094;49.948;11.574;2024-02-16T14:28:47;16.70;69.00
8103;DHT22;4094;49.948;11.574;2024-02-16T14:31:36;16.70;69.00
8103;DHT22;4094;49.948;11.574;2024-02-16T14:34:25;16.60;69.10
8103;DHT22;4094;49.948;11.574;2024-02-16T14:37:17;16.60;69.30
8103;DHT22;4094;49.948;11.574;2024-02-16T14:40:07;16.60;69.40
8103;DHT22;4094;49.948;11.574;2024-02-16T14:42:59;16.60;69.10
8103;DHT22;4094;49.948;11.574;2024-02-16T14:45:49;16.60;69.10
8103;DHT22;4094;49.948;11.574;2024-02-16T14:48:39;16.60;69.00
8103;DHT22;4094;49.948;11.574;2024-02-16T14:51:29;16.50;69.10
8103;DHT22;4094;49.948;11.574;2024-02-16T14:54:19;16.50;69.10
8103;DHT22;4094;49.948;11.574;2024-02-16T14:57:09;16.50;68.90
8103;DHT22;4094;49.948;11.574;2024-02-16T14:59:58;16.50;69.00
8103;DHT22;4094;49.948;11.574;2024-02-16T15:02:47;16.50;69.20
8103;DHT22;4094;49.948;11.574;2024-02-16T15:05:41;16.50;69.20
8103;DHT22;4094;49.948;11.574;2024-02-16T15:08:30;16.50;69.30
8103;DHT22;4094;49.948;11.574;2024-02-16T15:11:20;16.50;69.00
8103;DHT22;4094;49.948;11.574;2024-02-16T15:14:10;16.50;69.10
8103;DHT22;4094;49.948;11.574;2024-02-16T15:17:05;16.50;68.90
8103;DHT22;4094;49.948;11.574;2024-02-16T15:19:56;16.50;69.10
8103;DHT22;4094;49.948;11.574;2024-02-16T15:22:45;16.40;69.00
8103;DHT22;4094;49.948;11.574;2024-02-16T15:25:40;16.40;69.10
8103;DHT22;4094;49.948;11.574;2024-02-16T15:28:31;16.40;69.20
8103;DHT22;4094;49.948;11.574;2024-02-16T15:31:20;16.40;69.30
8103;DHT22;4094;49.948;11.574;2024-02-16T15:34:09;16.40;69.40
8103;DHT22;4094;49.948;11.574;2024-02-16T15:36:59;16.30;69.40
8103;DHT22;4094;49.948;11.574;2024-02-16T15:39:49;16.40;69.40
8103;DHT22;4094;49.948;11.574;2024-02-16T15:42:40;16.30;69.40
8103;DHT22;4094;49.948;11.574;2024-02-16T15:45:32;16.30;69.40
8103;DHT22;4094;49.948;11.574;2024-02-16T15:48:23;16.30;69.40
8103;DHT22;4094;49.948;11.574;2024-02-16T15:51:13;16.30;69.50
8103;DHT22;4094;49.948;11.574;2024-02-16T15:54:03;16.20;69.30
8103;DHT22;4094;49.948;11.574;2024-02-16T15:56:52;16.20;69.40
8103;DHT22;4094;49.948;11.574;2024-02-16T15:59:45;16.20;69.50
8103;DHT22;4094;49.948;11.574;2024-02-16T16:02:36;16.20;69.50
8103;DHT22;4094;49.948;11.574;2024-02-16T16:05:25;16.20;69.60
8103;DHT22;4094;49.948;11.574;2024-02-16T16:08:17;16.10;69.60
8103;DHT22;4094;49.948;11.574;2024-02-16T16:11:08;16.10;69.70
8103;DHT22;4094;49.948;11.574;2024-02-16T16:13:57;16.10;69.70
8103;DHT22;4094;49.948;11.574;2024-02-16T16:16:46;16.10;69.80
8103;DHT22;4094;49.948;11.574;2024-02-16T16:19:43;16.10;69.90
8103;DHT22;4094;49.948;11.574;2024-02-16T16:22:32;16.10;70.00
8103;DHT22;4094;49.948;11.574;2024-02-16T16:25:21;16.00;70.10
8103;DHT22;4094;49.948;11.574;2024-02-16T16:28:10;16.00;70.10
8103;DHT22;4094;49.948;11.574;2024-02-16T16:31:00;16.00;70.20
8103;DHT22;4094;49.948;11.574;2024-02-16T16:33:49;15.90;70.10
8103;DHT22;4094;49.948;11.574;2024-02-16T16:36:40;15.90;70.20
8103;DHT22;4094;49.948;11.574;2024-02-16T16:39:29;15.90;70.30
8103;DHT22;4094;49.948;11.574;2024-02-16T16:42:19;15.80;70.30
8103;DHT22;4094;49.948;11.574;2024-02-16T16:45:09;15.80;70.30
8103;DHT22;4094;49.948;11.574;2024-02-16T16:48:00;15.80;70.50
8103;DHT22;4094;49.948;11.574;2024-02-16T16:50:50;15.70;70.50
8103;DHT22;4094;49.948;11.574;2024-02-16T16:53:41;15.80;70.70
8103;DHT22;4094;49.948;11.574;2024-02-16T16:56:31;15.70;70.70
8103;DHT22;4094;49.948;11.574;2024-02-16T16:59:23;15.70;70.80
8103;DHT22;4094;49.948;11.574;2024-02-16T17:02:12;15.60;70.70
8103;DHT22;4094;49.948;11.574;2024-02-16T17:05:02;15.60;70.90
8103;DHT22;4094;49.948;11.574;2024-02-16T17:07:52;15.60;71.00
8103;DHT22;4094;49.948;11.574;2024-02-16T17:10:42;15.60;71.10
8103;DHT22;4094;49.948;11.574;2024-02-16T17:13:32;15.60;71.20
8103;DHT22;4094;49.948;11.574;2024-02-16T17:16:21;15.50;71.10
8103;DHT22;4094;49.948;11.574;2024-02-16T17:19:11;15.50;71.10
8103;DHT22;4094;49.948;11.574;2024-02-16T17:22:01;15.50;71.20
8103;DHT22;4094;49.948;11.574;2024-02-16T17:24:51;15.50;71.30
8103;DHT22;4094;49.948;11.574;2024-02-16T17:27:43;15.50;71.40
8103;DHT22;4094;49.948;11.574;2024-02-16T17:30:32;15.50;72.20
8103;DHT22;4094;49.948;11.574;2024-02-16T17:33:22;15.50;71.50
8103;DHT22;4094;49.948;11.574;2024-02-16T17:36:13;15.50;71.50
8103;DHT22;4094;49.948;11.574;2024-02-16T17:39:02;15.50;71.60
8103;DHT22;4094;49.948;11.574;2024-02-16T17:41:51;15.40;71.70
8103;DHT22;4094;49.948;11.574;2024-02-16T17:44:41;15.40;71.70
8103;DHT22;4094;49.948;11.574;2024-02-16T17:47:30;15.40;71.80
8103;DHT22;4094;49.948;11.574;2024-02-16T17:50:20;15.40;71.80
8103;DHT22;4094;49.948;11.574;2024-02-16T17:53:10;15.40;71.80
8103;DHT22;4094;49.948;11.574;2024-02-16T17:55:59;15.40;71.90
8103;DHT22;4094;49.948;11.574;2024-02-16T17:58:48;15.40;72.00
8103;DHT22;4094;49.948;11.574;2024-02-16T18:01:38;15.30;72.00
8103;DHT22;4094;49.948;11.574;2024-02-16T18:04:29;15.30;72.80
8103;DHT22;4094;49.948;11.574;2024-02-16T18:07:21;15.30;72.20
8103;DHT22;4094;49.948;11.574;2024-02-16T18:10:10;15.30;72.20
8103;DHT22;4094;49.948;11.574;2024-02-16T18:12:59;15.30;72.30